Terminal Aerodrome Forecast
Issued by NWS

Home | Current Version | Previous Version | Text Only | Print | Product List | Glossary On
Versions: 1 2 3 4 5 6 7 8 9 10 11 12 13 14 15 16
000
FTUS46 KHNX 071139
TAFMER
TAF
KMER 071139Z 0712/0812 VRB03KT P6SM BKN250
      TEMPO 0713/0716 5SM BR
     FM071800 VRB03KT 5SM HZ OVC250
     FM072000 VRB03KT P6SM OVC150
     FM080000 VRB03KT P6SM SCT060 OVC120 PROB30 0803/0806 -RA BKN060
     FM080600 13008KT P6SM -RA OVC050=

USA.gov is the U.S. government's official web portal to all federal, state and local government web resources and services.